sensor_id;sensor_type;location;lat;lon;timestamp;temperature;humidity
15906;DHT22;8051;50.820;4.884;2023-04-15T00:01:01;8.90;99.90
15906;DHT22;8051;50.820;4.884;2023-04-15T00:03:30;8.90;99.90
15906;DHT22;8051;50.820;4.884;2023-04-15T00:05:59;9.00;99.90
15906;DHT22;8051;50.820;4.884;2023-04-15T00:08:26;9.00;99.90
15906;DHT22;8051;50.820;4.884;2023-04-15T00:10:56;9.00;99.90
15906;DHT22;8051;50.820;4.884;2023-04-15T00:13:27;9.00;99.90
15906;DHT22;8051;50.820;4.884;2023-04-15T00:15:54;9.00;99.90
15906;DHT22;8051;50.820;4.884;2023-04-15T00:18:22;9.00;99.90
15906;DHT22;8051;50.820;4.884;2023-04-15T00:20:50;9.10;99.90
15906;DHT22;8051;50.820;4.884;2023-04-15T00:23:18;9.10;99.90
15906;DHT22;8051;50.820;4.884;2023-04-15T00:25:45;9.10;99.90
15906;DHT22;8051;50.820;4.884;2023-04-15T00:28:14;9.10;99.90
15906;DHT22;8051;50.820;4.884;2023-04-15T00:30:42;9.10;99.90
15906;DHT22;8051;50.820;4.884;2023-04-15T00:33:09;9.20;99.90
15906;DHT22;8051;50.820;4.884;2023-04-15T00:35:37;9.20;99.90
15906;DHT22;8051;50.820;4.884;2023-04-15T00:38:05;9.20;99.90
15906;DHT22;8051;50.820;4.884;2023-04-15T00:40:34;9.20;99.90
15906;DHT22;8051;50.820;4.884;2023-04-15T00:43:02;9.20;99.90
15906;DHT22;8051;50.820;4.884;2023-04-15T00:45:32;9.20;99.90
15906;DHT22;8051;50.820;4.884;2023-04-15T00:47:59;9.20;99.90
15906;DHT22;8051;50.820;4.884;2023-04-15T00:50:26;9.20;99.90
15906;DHT22;8051;50.820;4.884;2023-04-15T00:52:54;9.20;99.90
15906;DHT22;8051;50.820;4.884;2023-04-15T00:55:21;9.10;99.90
15906;DHT22;8051;50.820;4.884;2023-04-15T00:57:49;9.10;99.90
15906;DHT22;8051;50.820;4.884;2023-04-15T01:00:18;9.10;99.90
15906;DHT22;8051;50.820;4.884;2023-04-15T01:02:48;9.00;99.90
15906;DHT22;8051;50.820;4.884;2023-04-15T01:05:16;9.00;99.90
15906;DHT22;8051;50.820;4.884;2023-04-15T01:07:45;9.00;99.90
15906;DHT22;8051;50.820;4.884;2023-04-15T01:10:12;9.00;99.90
15906;DHT22;8051;50.820;4.884;2023-04-15T01:12:40;9.00;99.90
15906;DHT22;8051;50.820;4.884;2023-04-15T01:15:08;9.00;99.90
15906;DHT22;8051;50.820;4.884;2023-04-15T01:17:36;9.00;99.90
15906;DHT22;8051;50.820;4.884;2023-04-15T01:20:07;9.10;99.90
15906;DHT22;8051;50.820;4.884;2023-04-15T01:22:37;9.10;99.90
15906;DHT22;8051;50.820;4.884;2023-04-15T01:25:08;9.20;99.90
15906;DHT22;8051;50.820;4.884;2023-04-15T01:27:38;9.20;99.90
15906;DHT22;8051;50.820;4.884;2023-04-15T01:30:08;9.20;99.90
15906;DHT22;8051;50.820;4.884;2023-04-15T01:32:36;9.20;99.90
15906;DHT22;8051;50.820;4.884;2023-04-15T01:35:04;9.20;99.90
15906;DHT22;8051;50.820;4.884;2023-04-15T01:37:32;9.10;99.90
15906;DHT22;8051;50.820;4.884;2023-04-15T01:39:59;9.10;99.90
15906;DHT22;8051;50.820;4.884;2023-04-15T01:42:28;9.10;99.90
15906;DHT22;8051;50.820;4.884;2023-04-15T01:44:57;9.20;99.90
15906;DHT22;8051;50.820;4.884;2023-04-15T01:47:24;9.10;99.90
15906;DHT22;8051;50.820;4.884;2023-04-15T01:49:51;9.10;99.90
15906;DHT22;8051;50.820;4.884;2023-04-15T01:52:19;9.10;99.90
15906;DHT22;8051;50.820;4.884;2023-04-15T01:54:46;9.00;99.90
15906;DHT22;8051;50.820;4.884;2023-04-15T01:57:13;8.90;99.90
15906;DHT22;8051;50.820;4.884;2023-04-15T01:59:41;8.80;99.90
15906;DHT22;8051;50.820;4.884;2023-04-15T02:02:10;8.70;99.90
15906;DHT22;8051;50.820;4.884;2023-04-15T02:04:37;8.70;99.90
15906;DHT22;8051;50.820;4.884;2023-04-15T02:07:05;8.70;99.90
15906;DHT22;8051;50.820;4.884;2023-04-15T02:09:33;8.70;99.90
15906;DHT22;8051;50.820;4.884;2023-04-15T02:12:00;8.80;99.90
15906;DHT22;8051;50.820;4.884;2023-04-15T02:14:28;8.80;99.90
15906;DHT22;8051;50.820;4.884;2023-04-15T02:16:55;8.70;99.90
15906;DHT22;8051;50.820;4.884;2023-04-15T02:19:24;8.70;99.90
15906;DHT22;8051;50.820;4.884;2023-04-15T02:21:52;8.70;99.90
15906;DHT22;8051;50.820;4.884;2023-04-15T02:24:19;8.70;99.90
15906;DHT22;8051;50.820;4.884;2023-04-15T02:26:46;8.70;99.90
15906;DHT22;8051;50.820;4.884;2023-04-15T02:29:14;8.70;99.90
15906;DHT22;8051;50.820;4.884;2023-04-15T02:31:41;8.70;99.90
15906;DHT22;8051;50.820;4.884;2023-04-15T02:34:09;8.60;99.90
15906;DHT22;8051;50.820;4.884;2023-04-15T02:36:40;8.50;99.90
15906;DHT22;8051;50.820;4.884;2023-04-15T02:39:07;8.50;99.90
15906;DHT22;8051;50.820;4.884;2023-04-15T02:41:35;8.40;99.90
15906;DHT22;8051;50.820;4.884;2023-04-15T02:44:02;8.30;99.90
15906;DHT22;8051;50.820;4.884;2023-04-15T02:46:29;8.30;99.90
15906;DHT22;8051;50.820;4.884;2023-04-15T02:48:57;8.30;99.90
15906;DHT22;8051;50.820;4.884;2023-04-15T02:51:24;8.30;99.90
15906;DHT22;8051;50.820;4.884;2023-04-15T02:53:53;8.30;99.90
15906;DHT22;8051;50.820;4.884;2023-04-15T02:56:21;8.30;99.90
15906;DHT22;8051;50.820;4.884;2023-04-15T02:58:48;8.20;99.90
15906;DHT22;8051;50.820;4.884;2023-04-15T03:01:16;8.30;99.90
15906;DHT22;8051;50.820;4.884;2023-04-15T03:03:45;8.30;99.90
15906;DHT22;8051;50.820;4.884;2023-04-15T03:06:12;8.30;99.90
15906;DHT22;8051;50.820;4.884;2023-04-15T03:08:40;8.20;99.90
15906;DHT22;8051;50.820;4.884;2023-04-15T03:11:09;8.20;99.90
15906;DHT22;8051;50.820;4.884;2023-04-15T03:13:37;8.20;99.90
15906;DHT22;8051;50.820;4.884;2023-04-15T03:16:07;8.20;99.90
15906;DHT22;8051;50.820;4.884;2023-04-15T03:18:34;8.10;99.90
15906;DHT22;8051;50.820;4.884;2023-04-15T03:21:02;8.10;99.90
15906;DHT22;8051;50.820;4.884;2023-04-15T03:23:30;8.00;99.90
15906;DHT22;8051;50.820;4.884;2023-04-15T03:26:01;8.00;99.90
15906;DHT22;8051;50.820;4.884;2023-04-15T03:28:30;8.00;99.90
15906;DHT22;8051;50.820;4.884;2023-04-15T03:30:58;8.00;99.90
15906;DHT22;8051;50.820;4.884;2023-04-15T03:33:26;8.00;99.90
15906;DHT22;8051;50.820;4.884;2023-04-15T03:35:53;8.00;99.90
15906;DHT22;8051;50.820;4.884;2023-04-15T03:38:21;8.10;99.90
15906;DHT22;8051;50.820;4.884;2023-04-15T03:40:48;8.20;99.90
15906;DHT22;8051;50.820;4.884;2023-04-15T03:43:16;8.10;99.90
15906;DHT22;8051;50.820;4.884;2023-04-15T03:45:45;8.00;99.90
15906;DHT22;8051;50.820;4.884;2023-04-15T03:48:12;8.00;99.90
15906;DHT22;8051;50.820;4.884;2023-04-15T03:50:39;8.00;99.90
15906;DHT22;8051;50.820;4.884;2023-04-15T03:53:07;7.80;99.90
15906;DHT22;8051;50.820;4.884;2023-04-15T03:55:35;7.90;99.90
15906;DHT22;8051;50.820;4.884;2023-04-15T03:58:02;7.90;99.90
15906;DHT22;8051;50.820;4.884;2023-04-15T04:00:30;7.80;99.90
15906;DHT22;8051;50.820;4.884;2023-04-15T04:02:59;7.70;99.90
15906;DHT22;8051;50.820;4.884;2023-04-15T04:05:26;7.80;99.90
15906;DHT22;8051;50.820;4.884;2023-04-15T04:07:54;7.80;99.90
15906;DHT22;8051;50.820;4.884;2023-04-15T04:10:21;7.80;99.90
15906;DHT22;8051;50.820;4.884;2023-04-15T04:12:48;7.80;99.90
15906;DHT22;8051;50.820;4.884;2023-04-15T04:15:16;7.90;99.90
15906;DHT22;8051;50.820;4.884;2023-04-15T04:17:43;8.00;99.90
15906;DHT22;8051;50.820;4.884;2023-04-15T04:20:12;7.90;99.90
15906;DHT22;8051;50.820;4.884;2023-04-15T04:22:40;7.90;99.90
15906;DHT22;8051;50.820;4.884;2023-04-15T04:25:08;7.90;99.90
15906;DHT22;8051;50.820;4.884;2023-04-15T04:27:36;8.00;99.90
15906;DHT22;8051;50.820;4.884;2023-04-15T04:30:04;8.00;99.90
15906;DHT22;8051;50.820;4.884;2023-04-15T04:32:32;8.10;99.90
15906;DHT22;8051;50.820;4.884;2023-04-15T04:35:00;8.10;99.90
15906;DHT22;8051;50.820;4.884;2023-04-15T04:37:29;8.10;99.90
15906;DHT22;8051;50.820;4.884;2023-04-15T04:39:56;8.10;99.90
15906;DHT22;8051;50.820;4.884;2023-04-15T04:42:24;8.10;99.90
15906;DHT22;8051;50.820;4.884;2023-04-15T04:44:51;8.10;99.90
15906;DHT22;8051;50.820;4.884;2023-04-15T04:47:19;8.10;99.90
15906;DHT22;8051;50.820;4.884;2023-04-15T04:49:46;8.10;99.90
15906;DHT22;8051;50.820;4.884;2023-04-15T04:52:14;8.00;99.90
15906;DHT22;8051;50.820;4.884;2023-04-15T04:54:43;8.10;99.90
15906;DHT22;8051;50.820;4.884;2023-04-15T04:57:10;8.10;99.90
15906;DHT22;8051;50.820;4.884;2023-04-15T04:59:39;8.20;99.90
15906;DHT22;8051;50.820;4.884;2023-04-15T05:02:06;8.20;99.90
15906;DHT22;8051;50.820;4.884;2023-04-15T05:04:34;8.20;99.90
15906;DHT22;8051;50.820;4.884;2023-04-15T05:07:01;8.20;99.90
15906;DHT22;8051;50.820;4.884;2023-04-15T05:09:29;8.10;99.90
15906;DHT22;8051;50.820;4.884;2023-04-15T05:11:58;8.00;99.90
15906;DHT22;8051;50.820;4.884;2023-04-15T05:14:26;8.00;99.90
15906;DHT22;8051;50.820;4.884;2023-04-15T05:16:53;8.10;99.90
15906;DHT22;8051;50.820;4.884;2023-04-15T05:19:21;8.20;99.90
15906;DHT22;8051;50.820;4.884;2023-04-15T05:21:49;8.30;99.90
15906;DHT22;8051;50.820;4.884;2023-04-15T05:24:16;8.30;99.90
15906;DHT22;8051;50.820;4.884;2023-04-15T05:26:44;8.40;99.90
15906;DHT22;8051;50.820;4.884;2023-04-15T05:29:12;8.40;99.90
15906;DHT22;8051;50.820;4.884;2023-04-15T05:31:40;8.40;99.90
15906;DHT22;8051;50.820;4.884;2023-04-15T05:34:08;8.40;99.90
15906;DHT22;8051;50.820;4.884;2023-04-15T05:36:36;8.30;99.90
15906;DHT22;8051;50.820;4.884;2023-04-15T05:39:04;8.30;99.90
15906;DHT22;8051;50.820;4.884;2023-04-15T05:41:32;8.40;99.90
15906;DHT22;8051;50.820;4.884;2023-04-15T05:43:59;8.40;99.90
15906;DHT22;8051;50.820;4.884;2023-04-15T05:46:28;8.40;99.90
15906;DHT22;8051;50.820;4.884;2023-04-15T05:48:56;8.40;99.90
15906;DHT22;8051;50.820;4.884;2023-04-15T05:51:24;8.50;99.90
15906;DHT22;8051;50.820;4.884;2023-04-15T05:53:51;8.50;99.90
15906;DHT22;8051;50.820;4.884;2023-04-15T05:56:18;8.50;99.90
15906;DHT22;8051;50.820;4.884;2023-04-15T05:58:47;8.40;99.90
15906;DHT22;8051;50.820;4.884;2023-04-15T06:01:14;8.30;99.90
15906;DHT22;8051;50.820;4.884;2023-04-15T06:03:43;8.40;99.90
15906;DHT22;8051;50.820;4.884;2023-04-15T06:06:11;8.40;99.90
15906;DHT22;8051;50.820;4.884;2023-04-15T06:08:39;8.50;99.90
15906;DHT22;8051;50.820;4.884;2023-04-15T06:11:06;8.60;99.90
15906;DHT22;8051;50.820;4.884;2023-04-15T06:13:34;8.60;99.90
15906;DHT22;8051;50.820;4.884;2023-04-15T06:16:02;8.70;99.90
15906;DHT22;8051;50.820;4.884;2023-04-15T06:18:29;8.80;99.90
15906;DHT22;8051;50.820;4.884;2023-04-15T06:20:58;8.80;99.90
15906;DHT22;8051;50.820;4.884;2023-04-15T06:23:25;8.80;99.90
15906;DHT22;8051;50.820;4.884;2023-04-15T06:25:52;8.80;99.90
15906;DHT22;8051;50.820;4.884;2023-04-15T06:28:20;8.70;99.90
15906;DHT22;8051;50.820;4.884;2023-04-15T06:30:47;8.80;99.90
15906;DHT22;8051;50.820;4.884;2023-04-15T06:33:14;9.00;99.90
15906;DHT22;8051;50.820;4.884;2023-04-15T06:35:42;9.20;99.90
15906;DHT22;8051;50.820;4.884;2023-04-15T06:38:11;9.40;99.90
15906;DHT22;8051;50.820;4.884;2023-04-15T06:40:39;9.40;99.90
15906;DHT22;8051;50.820;4.884;2023-04-15T06:43:07;9.40;99.90
15906;DHT22;8051;50.820;4.884;2023-04-15T06:45:35;9.60;99.90
15906;DHT22;8051;50.820;4.884;2023-04-15T06:48:02;9.80;99.90
15906;DHT22;8051;50.820;4.884;2023-04-15T06:50:30;9.80;99.90
15906;DHT22;8051;50.820;4.884;2023-04-15T06:52:58;9.70;99.90
15906;DHT22;8051;50.820;4.884;2023-04-15T06:55:27;9.90;99.90
15906;DHT22;8051;50.820;4.884;2023-04-15T06:57:54;9.90;99.90
15906;DHT22;8051;50.820;4.884;2023-04-15T07:00:22;10.00;99.90
15906;DHT22;8051;50.820;4.884;2023-04-15T07:02:50;10.00;99.90
15906;DHT22;8051;50.820;4.884;2023-04-15T07:05:17;10.00;99.90
15906;DHT22;8051;50.820;4.884;2023-04-15T07:07:45;10.00;99.90
15906;DHT22;8051;50.820;4.884;2023-04-15T07:10:13;10.00;99.90
15906;DHT22;8051;50.820;4.884;2023-04-15T07:12:42;10.00;99.90
15906;DHT22;8051;50.820;4.884;2023-04-15T07:15:10;10.00;99.90
15906;DHT22;8051;50.820;4.884;2023-04-15T07:17:38;10.10;99.90
15906;DHT22;8051;50.820;4.884;2023-04-15T07:20:07;10.10;99.90
15906;DHT22;8051;50.820;4.884;2023-04-15T07:22:34;10.10;99.90
15906;DHT22;8051;50.820;4.884;2023-04-15T07:25:02;10.20;99.90
15906;DHT22;8051;50.820;4.884;2023-04-15T07:27:30;10.30;99.90
15906;DHT22;8051;50.820;4.884;2023-04-15T07:29:58;10.30;99.90
15906;DHT22;8051;50.820;4.884;2023-04-15T07:32:26;10.20;99.90
15906;DHT22;8051;50.820;4.884;2023-04-15T07:34:53;10.30;99.90
15906;DHT22;8051;50.820;4.884;2023-04-15T07:37:21;10.40;99.90
15906;DHT22;8051;50.820;4.884;2023-04-15T07:39:49;10.50;99.90
15906;DHT22;8051;50.820;4.884;2023-04-15T07:42:17;10.50;99.90
15906;DHT22;8051;50.820;4.884;2023-04-15T07:44:45;10.60;99.90
15906;DHT22;8051;50.820;4.884;2023-04-15T07:47:14;10.60;99.90
15906;DHT22;8051;50.820;4.884;2023-04-15T07:49:41;10.70;99.90
15906;DHT22;8051;50.820;4.884;2023-04-15T07:52:09;10.70;99.90
15906;DHT22;8051;50.820;4.884;2023-04-15T07:54:37;10.70;99.90
15906;DHT22;8051;50.820;4.884;2023-04-15T07:57:04;10.80;99.90
15906;DHT22;8051;50.820;4.884;2023-04-15T07:59:32;10.80;99.90
15906;DHT22;8051;50.820;4.884;2023-04-15T08:02:00;10.90;99.90
15906;DHT22;8051;50.820;4.884;2023-04-15T08:04:29;11.10;99.90
15906;DHT22;8051;50.820;4.884;2023-04-15T08:06:57;11.30;99.90
15906;DHT22;8051;50.820;4.884;2023-04-15T08:09:24;11.20;99.90
15906;DHT22;8051;50.820;4.884;2023-04-15T08:11:52;11.20;99.90
15906;DHT22;8051;50.820;4.884;2023-04-15T08:14:20;11.40;99.90
15906;DHT22;8051;50.820;4.884;2023-04-15T08:16:47;11.50;99.90
15906;DHT22;8051;50.820;4.884;2023-04-15T08:19:15;11.60;99.90
15906;DHT22;8051;50.820;4.884;2023-04-15T08:21:44;11.60;99.90
15906;DHT22;8051;50.820;4.884;2023-04-15T08:24:11;11.70;99.90
15906;DHT22;8051;50.820;4.884;2023-04-15T08:26:39;11.80;99.90
15906;DHT22;8051;50.820;4.884;2023-04-15T08:29:06;11.80;99.90
15906;DHT22;8051;50.820;4.884;2023-04-15T08:31:34;11.80;99.90
15906;DHT22;8051;50.820;4.884;2023-04-15T08:34:01;12.00;99.90
15906;DHT22;8051;50.820;4.884;2023-04-15T08:36:30;12.10;99.90
15906;DHT22;8051;50.820;4.884;2023-04-15T08:39:00;12.20;99.90
15906;DHT22;8051;50.820;4.884;2023-04-15T08:41:33;12.20;99.90
15906;DHT22;8051;50.820;4.884;2023-04-15T08:44:05;12.20;99.90
15906;DHT22;8051;50.820;4.884;2023-04-15T08:46:33;12.30;99.90
15906;DHT22;8051;50.820;4.884;2023-04-15T08:49:02;12.40;99.90
15906;DHT22;8051;50.820;4.884;2023-04-15T08:51:31;12.50;99.90
15906;DHT22;8051;50.820;4.884;2023-04-15T08:54:00;12.60;99.90
15906;DHT22;8051;50.820;4.884;2023-04-15T08:56:30;12.60;99.90
15906;DHT22;8051;50.820;4.884;2023-04-15T08:58:58;12.60;99.90
15906;DHT22;8051;50.820;4.884;2023-04-15T09:01:26;12.70;99.90
15906;DHT22;8051;50.820;4.884;2023-04-15T09:03:55;12.90;99.90
15906;DHT22;8051;50.820;4.884;2023-04-15T09:06:22;12.90;99.90
15906;DHT22;8051;50.820;4.884;2023-04-15T09:08:50;13.00;99.90
15906;DHT22;8051;50.820;4.884;2023-04-15T09:11:20;13.10;99.90
15906;DHT22;8051;50.820;4.884;2023-04-15T09:13:48;13.20;99.90
15906;DHT22;8051;50.820;4.884;2023-04-15T09:16:16;13.20;99.90
15906;DHT22;8051;50.820;4.884;2023-04-15T09:18:44;13.30;99.90
15906;DHT22;8051;50.820;4.884;2023-04-15T09:21:13;13.40;99.90
15906;DHT22;8051;50.820;4.884;2023-04-15T09:23:41;13.40;99.90
15906;DHT22;8051;50.820;4.884;2023-04-15T09:26:30;13.50;99.90
15906;DHT22;8051;50.820;4.884;2023-04-15T09:29:04;13.60;99.90
15906;DHT22;8051;50.820;4.884;2023-04-15T09:31:33;13.50;99.90
15906;DHT22;8051;50.820;4.884;2023-04-15T09:34:00;13.40;99.90
15906;DHT22;8051;50.820;4.884;2023-04-15T09:36:28;13.50;99.90
15906;DHT22;8051;50.820;4.884;2023-04-15T09:38:56;13.50;99.90
15906;DHT22;8051;50.820;4.884;2023-04-15T09:41:26;13.50;99.90
15906;DHT22;8051;50.820;4.884;2023-04-15T09:43:53;13.40;99.90
15906;DHT22;8051;50.820;4.884;2023-04-15T09:46:39;13.40;99.90
15906;DHT22;8051;50.820;4.884;2023-04-15T09:49:08;13.50;99.90
15906;DHT22;8051;50.820;4.884;2023-04-15T09:51:36;13.50;99.90
15906;DHT22;8051;50.820;4.884;2023-04-15T09:54:04;13.60;99.90
15906;DHT22;8051;50.820;4.884;2023-04-15T09:56:34;13.60;99.90
15906;DHT22;8051;50.820;4.884;2023-04-15T09:59:04;13.50;99.90
15906;DHT22;8051;50.820;4.884;2023-04-15T10:01:31;13.50;99.90
15906;DHT22;8051;50.820;4.884;2023-04-15T10:04:02;13.60;99.90
15906;DHT22;8051;50.820;4.884;2023-04-15T10:06:30;13.70;99.90
15906;DHT22;8051;50.820;4.884;2023-04-15T10:08:58;13.60;99.90
15906;DHT22;8051;50.820;4.884;2023-04-15T10:11:28;13.70;99.90
15906;DHT22;8051;50.820;4.884;2023-04-15T10:13:57;13.60;99.90
15906;DHT22;8051;50.820;4.884;2023-04-15T10:16:26;13.80;99.90
15906;DHT22;8051;50.820;4.884;2023-04-15T10:18:55;13.80;99.90
15906;DHT22;8051;50.820;4.884;2023-04-15T10:21:23;13.80;99.90
15906;DHT22;8051;50.820;4.884;2023-04-15T10:23:51;13.80;99.90
15906;DHT22;8051;50.820;4.884;2023-04-15T10:26:18;13.80;99.90
15906;DHT22;8051;50.820;4.884;2023-04-15T10:28:46;13.80;99.90
15906;DHT22;8051;50.820;4.884;2023-04-15T10:31:16;13.90;99.90
15906;DHT22;8051;50.820;4.884;2023-04-15T10:33:45;13.90;99.90
15906;DHT22;8051;50.820;4.884;2023-04-15T10:36:13;13.90;99.90
15906;DHT22;8051;50.820;4.884;2023-04-15T10:38:43;13.90;99.90
15906;DHT22;8051;50.820;4.884;2023-04-15T10:41:12;14.00;99.90
15906;DHT22;8051;50.820;4.884;2023-04-15T10:43:46;14.20;99.90
15906;DHT22;8051;50.820;4.884;2023-04-15T10:46:18;14.20;99.90
15906;DHT22;8051;50.820;4.884;2023-04-15T10:48:48;14.20;99.90
15906;DHT22;8051;50.820;4.884;2023-04-15T10:51:16;14.30;99.90
15906;DHT22;8051;50.820;4.884;2023-04-15T10:53:56;14.50;99.90
15906;DHT22;8051;50.820;4.884;2023-04-15T10:56:25;14.30;99.90
15906;DHT22;8051;50.820;4.884;2023-04-15T10:58:54;14.30;99.90
15906;DHT22;8051;50.820;4.884;2023-04-15T11:01:49;14.30;99.90
15906;DHT22;8051;50.820;4.884;2023-04-15T11:07:32;14.20;99.90
15906;DHT22;8051;50.820;4.884;2023-04-15T11:09:59;14.10;99.90
15906;DHT22;8051;50.820;4.884;2023-04-15T11:12:33;14.00;99.90
15906;DHT22;8051;50.820;4.884;2023-04-15T11:15:26;14.10;99.90
15906;DHT22;8051;50.820;4.884;2023-04-15T11:17:56;14.30;99.90
15906;DHT22;8051;50.820;4.884;2023-04-15T11:20:24;14.40;99.90
15906;DHT22;8051;50.820;4.884;2023-04-15T11:22:53;14.30;99.90
15906;DHT22;8051;50.820;4.884;2023-04-15T11:25:23;14.40;99.90
15906;DHT22;8051;50.820;4.884;2023-04-15T11:27:52;14.60;99.90
15906;DHT22;8051;50.820;4.884;2023-04-15T11:30:21;14.50;99.90
15906;DHT22;8051;50.820;4.884;2023-04-15T11:32:52;14.60;99.90
15906;DHT22;8051;50.820;4.884;2023-04-15T11:35:21;14.60;99.90
15906;DHT22;8051;50.820;4.884;2023-04-15T11:37:49;14.60;99.90
15906;DHT22;8051;50.820;4.884;2023-04-15T11:40:19;14.70;99.90
15906;DHT22;8051;50.820;4.884;2023-04-15T11:43:03;14.70;99.90
15906;DHT22;8051;50.820;4.884;2023-04-15T11:45:30;14.80;99.90
15906;DHT22;8051;50.820;4.884;2023-04-15T11:48:05;14.80;99.90
15906;DHT22;8051;50.820;4.884;2023-04-15T11:50:35;14.90;99.90
15906;DHT22;8051;50.820;4.884;2023-04-15T11:53:06;14.90;99.90
15906;DHT22;8051;50.820;4.884;2023-04-15T11:55:41;15.00;99.90
15906;DHT22;8051;50.820;4.884;2023-04-15T11:58:11;15.20;99.90
15906;DHT22;8051;50.820;4.884;2023-04-15T12:00:40;15.20;99.90
15906;DHT22;8051;50.820;4.884;2023-04-15T12:03:12;15.30;99.90
15906;DHT22;8051;50.820;4.884;2023-04-15T12:06:05;15.20;99.90
15906;DHT22;8051;50.820;4.884;2023-04-15T12:11:43;15.20;99.90
15906;DHT22;8051;50.820;4.884;2023-04-15T12:14:23;15.10;99.90
15906;DHT22;8051;50.820;4.884;2023-04-15T12:16:53;15.10;99.90
15906;DHT22;8051;50.820;4.884;2023-04-15T12:19:25;15.20;99.90
15906;DHT22;8051;50.820;4.884;2023-04-15T12:21:57;15.30;99.90
15906;DHT22;8051;50.820;4.884;2023-04-15T12:24:25;15.20;99.90
15906;DHT22;8051;50.820;4.884;2023-04-15T12:26:54;15.20;99.90
15906;DHT22;8051;50.820;4.884;2023-04-15T12:29:26;15.30;99.90
15906;DHT22;8051;50.820;4.884;2023-04-15T12:31:55;15.50;99.90
15906;DHT22;8051;50.820;4.884;2023-04-15T12:34:27;15.40;99.90
15906;DHT22;8051;50.820;4.884;2023-04-15T12:36:57;15.10;99.90
15906;DHT22;8051;50.820;4.884;2023-04-15T12:39:25;15.00;99.90
15906;DHT22;8051;50.820;4.884;2023-04-15T12:41:53;15.10;99.90
15906;DHT22;8051;50.820;4.884;2023-04-15T12:44:22;15.10;99.90
15906;DHT22;8051;50.820;4.884;2023-04-15T12:46:50;15.00;99.90
15906;DHT22;8051;50.820;4.884;2023-04-15T12:49:20;14.80;99.90
15906;DHT22;8051;50.820;4.884;2023-04-15T12:51:48;15.00;99.90
15906;DHT22;8051;50.820;4.884;2023-04-15T12:54:17;15.10;99.90
15906;DHT22;8051;50.820;4.884;2023-04-15T12:56:46;14.90;99.90
15906;DHT22;8051;50.820;4.884;2023-04-15T12:59:15;15.00;99.90
15906;DHT22;8051;50.820;4.884;2023-04-15T13:01:43;15.00;99.90
15906;DHT22;8051;50.820;4.884;2023-04-15T13:04:11;15.20;99.90
15906;DHT22;8051;50.820;4.884;2023-04-15T13:06:38;15.30;99.90
15906;DHT22;8051;50.820;4.884;2023-04-15T13:09:06;15.10;99.90
15906;DHT22;8051;50.820;4.884;2023-04-15T13:11:35;15.30;99.90
15906;DHT22;8051;50.820;4.884;2023-04-15T13:14:03;15.50;99.90
15906;DHT22;8051;50.820;4.884;2023-04-15T13:16:31;15.40;99.90
15906;DHT22;8051;50.820;4.884;2023-04-15T13:18:59;15.40;99.90
15906;DHT22;8051;50.820;4.884;2023-04-15T13:21:27;15.40;99.90
15906;DHT22;8051;50.820;4.884;2023-04-15T13:23:54;15.40;99.90
15906;DHT22;8051;50.820;4.884;2023-04-15T13:26:22;15.30;99.90
15906;DHT22;8051;50.820;4.884;2023-04-15T13:28:51;15.30;99.90
15906;DHT22;8051;50.820;4.884;2023-04-15T13:31:18;15.30;99.90
15906;DHT22;8051;50.820;4.884;2023-04-15T13:33:46;15.10;99.90
15906;DHT22;8051;50.820;4.884;2023-04-15T13:36:14;15.20;99.90
15906;DHT22;8051;50.820;4.884;2023-04-15T13:38:41;15.30;99.90
15906;DHT22;8051;50.820;4.884;2023-04-15T13:41:08;15.20;99.90
15906;DHT22;8051;50.820;4.884;2023-04-15T13:43:36;15.20;99.90
15906;DHT22;8051;50.820;4.884;2023-04-15T13:46:05;15.20;99.90
15906;DHT22;8051;50.820;4.884;2023-04-15T13:48:32;15.20;99.90
15906;DHT22;8051;50.820;4.884;2023-04-15T13:51:00;15.30;99.90
15906;DHT22;8051;50.820;4.884;2023-04-15T13:53:27;15.20;99.90
15906;DHT22;8051;50.820;4.884;2023-04-15T13:55:56;15.20;99.90
15906;DHT22;8051;50.820;4.884;2023-04-15T13:58:23;15.20;99.90
15906;DHT22;8051;50.820;4.884;2023-04-15T14:00:50;15.50;99.90
15906;DHT22;8051;50.820;4.884;2023-04-15T14:03:19;15.60;99.90
15906;DHT22;8051;50.820;4.884;2023-04-15T14:05:47;15.70;99.90
15906;DHT22;8051;50.820;4.884;2023-04-15T14:08:18;15.80;99.90
15906;DHT22;8051;50.820;4.884;2023-04-15T14:10:45;15.80;99.90
15906;DHT22;8051;50.820;4.884;2023-04-15T14:13:14;15.80;99.90
15906;DHT22;8051;50.820;4.884;2023-04-15T14:15:41;15.70;99.90
15906;DHT22;8051;50.820;4.884;2023-04-15T14:18:10;15.50;99.90
15906;DHT22;8051;50.820;4.884;2023-04-15T14:20:39;15.50;99.90
15906;DHT22;8051;50.820;4.884;2023-04-15T14:23:07;15.60;99.90
15906;DHT22;8051;50.820;4.884;2023-04-15T14:25:34;15.60;99.90
15906;DHT22;8051;50.820;4.884;2023-04-15T14:28:03;15.60;99.90
15906;DHT22;8051;50.820;4.884;2023-04-15T14:30:31;15.60;99.90
15906;DHT22;8051;50.820;4.884;2023-04-15T14:32:58;15.50;99.90
15906;DHT22;8051;50.820;4.884;2023-04-15T14:35:26;15.70;99.90
15906;DHT22;8051;50.820;4.884;2023-04-15T14:37:55;15.70;99.90
15906;DHT22;8051;50.820;4.884;2023-04-15T14:40:22;15.70;99.90
15906;DHT22;8051;50.820;4.884;2023-04-15T14:42:50;15.80;99.90
15906;DHT22;8051;50.820;4.884;2023-04-15T14:45:17;16.20;99.90
15906;DHT22;8051;50.820;4.884;2023-04-15T14:47:45;16.60;99.90
15906;DHT22;8051;50.820;4.884;2023-04-15T14:50:13;16.90;99.90
15906;DHT22;8051;50.820;4.884;2023-04-15T14:52:40;16.70;99.90
15906;DHT22;8051;50.820;4.884;2023-04-15T14:55:10;16.30;99.90
15906;DHT22;8051;50.820;4.884;2023-04-15T14:57:38;16.00;99.90
15906;DHT22;8051;50.820;4.884;2023-04-15T15:00:08;16.10;99.90
15906;DHT22;8051;50.820;4.884;2023-04-15T15:02:36;16.10;99.90
15906;DHT22;8051;50.820;4.884;2023-04-15T15:05:04;16.10;99.90
15906;DHT22;8051;50.820;4.884;2023-04-15T15:07:32;16.10;99.90
15906;DHT22;8051;50.820;4.884;2023-04-15T15:10:00;16.10;99.90
15906;DHT22;8051;50.820;4.884;2023-04-15T15:12:29;16.00;99.90
15906;DHT22;8051;50.820;4.884;2023-04-15T15:14:57;16.00;99.90
15906;DHT22;8051;50.820;4.884;2023-04-15T15:17:24;15.90;99.90
15906;DHT22;8051;50.820;4.884;2023-04-15T15:19:52;15.80;99.90
15906;DHT22;8051;50.820;4.884;2023-04-15T15:22:19;15.80;99.90
15906;DHT22;8051;50.820;4.884;2023-04-15T15:24:46;15.90;99.90
15906;DHT22;8051;50.820;4.884;2023-04-15T15:27:14;15.90;99.90
15906;DHT22;8051;50.820;4.884;2023-04-15T15:29:43;15.80;99.90
15906;DHT22;8051;50.820;4.884;2023-04-15T15:32:10;15.70;99.90
15906;DHT22;8051;50.820;4.884;2023-04-15T15:34:37;15.50;99.90
15906;DHT22;8051;50.820;4.884;2023-04-15T15:37:05;15.60;99.90
15906;DHT22;8051;50.820;4.884;2023-04-15T15:39:33;15.60;99.90
15906;DHT22;8051;50.820;4.884;2023-04-15T15:42:01;15.50;99.90
15906;DHT22;8051;50.820;4.884;2023-04-15T15:44:28;15.40;99.90
15906;DHT22;8051;50.820;4.884;2023-04-15T15:46:57;15.30;99.90
15906;DHT22;8051;50.820;4.884;2023-04-15T15:49:25;15.00;99.90
15906;DHT22;8051;50.820;4.884;2023-04-15T15:51:53;15.00;99.90
15906;DHT22;8051;50.820;4.884;2023-04-15T15:54:20;15.00;99.90
15906;DHT22;8051;50.820;4.884;2023-04-15T15:56:47;15.10;99.90
15906;DHT22;8051;50.820;4.884;2023-04-15T15:59:15;15.20;99.90
15906;DHT22;8051;50.820;4.884;2023-04-15T16:01:42;15.30;99.90
15906;DHT22;8051;50.820;4.884;2023-04-15T16:04:11;15.20;99.90
15906;DHT22;8051;50.820;4.884;2023-04-15T16:06:39;15.30;99.90